1MD7 weather

Shady Grove Adventist Hospital Heliport
Rockville, Maryland, United States

Public forecast

Using degrees Fahrenheit for public forecast. Weather courtesy of forecast.io.

Closest aviation weather report (METAR) to Shady Grove Adventist Hospital Heliport

Closest report is Montgomery County Airpark, 4.4 nm (8.2 km) NNE. Retrieved 2020/05/26 19:56 UTC (21 minutes ago):

KGAI 261956Z AUTO 14006KT 10SM SCT040 27/17 A3018 RMK AO2 SLP231 T02720172

Closest aviation forecast (TAF) to Shady Grove Adventist Hospital Heliport

Closest forecast is Washington Dulles International Airport, 15.2 nm (28.1 km) SW. Retrieved 2020/05/26 18:42 UTC (2 hours ago):

TAF KIAD 261740Z 2618/2724 12006KT P6SM SCT030 SCT250 FM270000 14004KT P6SM SCT050 BKN250 FM270400 15004KT P6SM BKN045 FM270600 15004KT P6SM BKN025 FM270700 14004KT 3SM BR OVC003 FM271400 12005KT P6SM BKN010 FM271800 14007KT P6SM BKN040